createdAt,value
2023-05-05T00:01:35.695Z,9.43
2023-05-05T00:04:02.575Z,11.32
2023-05-05T00:06:29.438Z,8.50
2023-05-05T00:08:56.445Z,8.07
2023-05-05T00:11:23.704Z,9.57
2023-05-05T00:13:51.726Z,7.90
2023-05-05T00:16:18.733Z,10.30
2023-05-05T00:18:45.590Z,12.75
2023-05-05T00:21:12.402Z,8.00
2023-05-05T00:23:39.191Z,8.30
2023-05-05T00:26:06.679Z,13.15
2023-05-05T00:28:33.519Z,7.43
2023-05-05T00:31:00.724Z,12.95
2023-05-05T00:33:27.536Z,7.53
2023-05-05T00:35:54.302Z,7.25
2023-05-05T00:38:21.127Z,9.70
2023-05-05T00:40:48.003Z,10.10
2023-05-05T00:43:14.887Z,9.38
2023-05-05T00:45:44.462Z,9.23
2023-05-05T00:48:11.800Z,8.63
2023-05-05T00:50:38.914Z,10.02
2023-05-05T00:53:07.099Z,9.27
2023-05-05T00:55:36.934Z,11.32
2023-05-05T00:58:04.584Z,9.73
2023-05-05T01:00:31.662Z,6.90
2023-05-05T01:03:00.030Z,9.07
2023-05-05T01:05:35.240Z,13.27
2023-05-05T01:08:29.190Z,8.55
2023-05-05T01:11:03.318Z,12.40
2023-05-05T01:13:38.924Z,7.10
2023-05-05T01:16:27.962Z,9.48
2023-05-05T01:19:33.953Z,9.07
2023-05-05T01:22:04.109Z,18.02
2023-05-05T01:24:57.180Z,7.43
2023-05-05T01:27:55.786Z,14.52
2023-05-05T01:30:57.935Z,12.93
2023-05-05T01:33:27.802Z,12.85
2023-05-05T01:36:00.709Z,9.52
2023-05-05T01:38:41.065Z,13.82
2023-05-05T01:41:07.827Z,9.60
2023-05-05T01:43:36.904Z,9.00
2023-05-05T01:46:06.627Z,10.43
2023-05-05T01:48:34.084Z,9.43
2023-05-05T01:51:03.241Z,9.30
2023-05-05T01:53:31.647Z,10.27
2023-05-05T01:55:59.272Z,9.70
2023-05-05T01:58:29.264Z,10.68
2023-05-05T02:00:58.106Z,13.27
2023-05-05T02:03:27.768Z,8.70
2023-05-05T02:05:57.482Z,9.82
2023-05-05T02:08:26.197Z,10.98
2023-05-05T02:10:54.809Z,9.45
2023-05-05T02:13:23.614Z,9.50
2023-05-05T02:15:52.306Z,12.88
2023-05-05T02:18:20.233Z,13.43
2023-05-05T02:20:47.616Z,10.82
2023-05-05T02:23:14.562Z,7.90
2023-05-05T02:25:45.551Z,8.65
2023-05-05T02:28:40.877Z,7.57
2023-05-05T02:31:09.062Z,10.88
2023-05-05T02:33:38.315Z,8.70
2023-05-05T02:36:27.975Z,9.13
2023-05-05T02:39:02.470Z,7.32
2023-05-05T02:41:36.376Z,12.63
2023-05-05T02:44:12.808Z,10.52
2023-05-05T02:46:40.014Z,13.88
2023-05-05T02:49:07.013Z,11.68
2023-05-05T02:51:34.539Z,13.13
2023-05-05T02:54:06.430Z,9.38
2023-05-05T02:56:43.206Z,22.52
2023-05-05T02:59:10.244Z,7.60
2023-05-05T03:01:40.101Z,9.85
2023-05-05T03:04:15.571Z,9.82
2023-05-05T03:06:50.176Z,10.15
2023-05-05T03:09:52.100Z,10.10
2023-05-05T03:12:22.648Z,7.22
2023-05-05T03:15:07.064Z,14.60
2023-05-05T03:17:36.945Z,11.95
2023-05-05T03:20:08.492Z,9.65
2023-05-05T03:22:39.272Z,10.80
2023-05-05T03:25:11.331Z,12.88
2023-05-05T03:27:38.224Z,11.35
2023-05-05T03:30:07.122Z,8.48
2023-05-05T03:32:37.876Z,7.20
2023-05-05T03:35:05.097Z,11.45
2023-05-05T03:37:34.043Z,11.25
2023-05-05T03:40:00.899Z,11.00
2023-05-05T03:42:28.268Z,9.45
2023-05-05T03:44:55.407Z,9.25
2023-05-05T03:47:24.936Z,6.60
2023-05-05T03:49:53.531Z,7.25
2023-05-05T03:52:20.656Z,8.05
2023-05-05T03:54:47.702Z,12.55
2023-05-05T03:57:14.612Z,12.00
2023-05-05T03:59:41.451Z,9.15
2023-05-05T04:02:09.201Z,11.32
2023-05-05T04:04:36.346Z,10.68
2023-05-05T04:07:03.271Z,6.50
2023-05-05T04:09:30.155Z,6.82
2023-05-05T04:11:57.519Z,8.23
2023-05-05T04:14:24.944Z,9.20
2023-05-05T04:16:52.355Z,10.63
2023-05-05T04:19:19.706Z,10.05
2023-05-05T04:21:47.168Z,24.05
2023-05-05T04:24:14.069Z,10.93
2023-05-05T04:26:41.751Z,10.23
2023-05-05T04:29:09.958Z,8.02
2023-05-05T04:31:37.171Z,8.98
2023-05-05T04:34:04.200Z,10.05
2023-05-05T04:36:31.696Z,6.60
2023-05-05T04:38:59.422Z,7.70
2023-05-05T04:41:28.199Z,10.30
2023-05-05T04:43:57.026Z,8.20
2023-05-05T04:46:25.302Z,10.15
2023-05-05T04:48:52.725Z,8.23
2023-05-05T04:51:19.585Z,9.82
2023-05-05T04:53:46.734Z,11.60
2023-05-05T04:56:13.551Z,9.63
2023-05-05T04:58:40.359Z,9.20
2023-05-05T05:01:07.161Z,11.40
2023-05-05T05:03:34.105Z,9.13
2023-05-05T05:06:01.018Z,17.55
2023-05-05T05:08:28.488Z,14.32
2023-05-05T05:10:55.320Z,11.63
2023-05-05T05:13:22.886Z,10.73
2023-05-05T05:15:50.907Z,8.90
2023-05-05T05:18:18.344Z,8.90
2023-05-05T05:20:46.306Z,10.85
2023-05-05T05:23:13.944Z,11.88
2023-05-05T05:25:43.752Z,10.60
2023-05-05T05:28:12.007Z,9.88
2023-05-05T05:30:45.123Z,15.40
2023-05-05T05:33:12.438Z,12.77
2023-05-05T05:35:40.086Z,17.70
2023-05-05T05:38:07.510Z,19.42
2023-05-05T05:40:34.372Z,19.42
2023-05-05T05:43:03.040Z,20.30
2023-05-05T05:45:30.752Z,20.20
2023-05-05T05:47:57.634Z,13.18
2023-05-05T05:50:27.314Z,14.65
2023-05-05T05:52:55.188Z,17.60
2023-05-05T05:55:22.630Z,15.30
2023-05-05T05:57:49.494Z,24.50
2023-05-05T06:00:16.639Z,21.65
2023-05-05T06:02:51.605Z,16.27
2023-05-05T06:05:21.958Z,29.27
2023-05-05T06:07:50.714Z,14.32
2023-05-05T06:12:53.658Z,18.98
2023-05-05T06:15:20.581Z,18.55
2023-05-05T06:17:47.827Z,18.88
2023-05-05T06:20:14.769Z,19.48
2023-05-05T06:22:41.573Z,18.65
2023-05-05T06:25:08.808Z,19.58
2023-05-05T06:27:36.509Z,17.48
2023-05-05T06:30:03.461Z,22.98
2023-05-05T06:32:30.280Z,19.45
2023-05-05T06:34:57.098Z,19.75
2023-05-05T06:37:23.911Z,22.27
2023-05-05T06:39:50.945Z,18.20
2023-05-05T06:42:17.782Z,14.27
2023-05-05T06:44:45.880Z,18.42
2023-05-05T06:47:12.688Z,21.63
2023-05-05T06:49:39.475Z,25.80
2023-05-05T06:52:08.415Z,14.65
2023-05-05T06:54:35.209Z,17.83
2023-05-05T06:57:02.052Z,15.93
2023-05-05T06:59:28.954Z,19.50
2023-05-05T07:01:56.581Z,20.55
2023-05-05T07:04:23.620Z,21.17
2023-05-05T07:06:50.547Z,17.80
2023-05-05T07:09:17.712Z,20.00
2023-05-05T07:11:44.597Z,19.15
2023-05-05T07:14:11.421Z,16.05
2023-05-05T07:16:39.329Z,23.77
2023-05-05T07:19:06.532Z,19.35
2023-05-05T07:21:36.834Z,22.92
2023-05-05T07:24:04.295Z,18.75
2023-05-05T07:26:31.428Z,16.25
2023-05-05T07:28:59.148Z,16.77
2023-05-05T07:31:26.863Z,15.18
2023-05-05T07:33:53.927Z,16.70
2023-05-05T07:36:20.970Z,16.73
2023-05-05T07:38:47.971Z,21.55
2023-05-05T07:41:14.794Z,15.50
2023-05-05T07:43:44.253Z,13.20
2023-05-05T07:48:41.651Z,14.98
2023-05-05T07:51:09.590Z,14.52
2023-05-05T07:53:37.109Z,13.60
2023-05-05T07:56:04.348Z,14.70
2023-05-05T07:58:31.328Z,13.88
2023-05-05T08:00:58.174Z,18.00
2023-05-05T08:03:25.311Z,17.73
2023-05-05T08:05:54.875Z,19.55
2023-05-05T08:08:25.149Z,16.13
2023-05-05T08:10:53.459Z,15.75
2023-05-05T08:13:20.613Z,18.08
2023-05-05T08:15:47.809Z,22.98
2023-05-05T08:18:15.047Z,20.67
2023-05-05T08:20:42.036Z,17.63
2023-05-05T08:23:08.990Z,17.42
2023-05-05T08:25:36.253Z,12.88
2023-05-05T08:28:03.401Z,16.42
2023-05-05T08:30:30.306Z,16.38
2023-05-05T08:32:57.421Z,19.00
2023-05-05T08:35:24.468Z,17.23
2023-05-05T08:37:51.993Z,14.10
2023-05-05T08:40:21.412Z,19.48
2023-05-05T08:42:48.355Z,13.75
2023-05-05T08:45:16.091Z,12.63
2023-05-05T08:47:43.676Z,16.35
2023-05-05T08:50:11.568Z,25.13
2023-05-05T08:52:40.781Z,18.83
2023-05-05T08:55:28.599Z,20.88
2023-05-05T08:57:57.494Z,14.50
2023-05-05T09:00:24.860Z,16.92
2023-05-05T09:02:52.736Z,14.60
2023-05-05T09:05:19.638Z,13.68
2023-05-05T09:07:47.494Z,16.13
2023-05-05T09:10:14.535Z,19.75
2023-05-05T09:12:41.576Z,20.67
2023-05-05T09:15:13.635Z,20.60
2023-05-05T09:17:41.871Z,13.73
2023-05-05T09:20:11.050Z,14.50
2023-05-05T09:22:38.821Z,13.57
2023-05-05T09:25:08.851Z,19.58
2023-05-05T09:27:41.393Z,12.90
2023-05-05T09:30:09.969Z,20.15
2023-05-05T09:33:03.549Z,18.30
2023-05-05T09:35:48.236Z,15.68
2023-05-05T09:38:15.069Z,12.55
2023-05-05T09:40:53.027Z,16.23
2023-05-05T09:43:24.007Z,16.42
2023-05-05T09:45:51.624Z,14.60
2023-05-05T09:48:29.557Z,17.42
2023-05-05T09:50:58.143Z,21.50
2023-05-05T09:53:26.667Z,12.60
2023-05-05T09:55:57.769Z,16.08
2023-05-05T09:58:29.580Z,13.38
2023-05-05T10:00:57.894Z,17.25
2023-05-05T10:03:25.727Z,18.13
2023-05-05T10:05:54.176Z,13.45
2023-05-05T10:08:23.704Z,17.20
2023-05-05T10:10:52.243Z,16.20
2023-05-05T10:13:21.624Z,16.27
2023-05-05T10:15:51.808Z,17.05
2023-05-05T10:18:27.610Z,14.68
2023-05-05T10:23:44.977Z,18.42
2023-05-05T10:26:14.759Z,15.57
2023-05-05T10:28:50.612Z,16.42
2023-05-05T10:34:02.861Z,14.85
2023-05-05T10:36:30.780Z,18.90
2023-05-05T10:39:00.274Z,17.40
2023-05-05T10:41:27.298Z,15.82
2023-05-05T10:44:01.381Z,16.08
2023-05-05T10:46:29.931Z,18.02
2023-05-05T10:49:38.423Z,16.38
2023-05-05T10:52:21.066Z,18.67
2023-05-05T10:54:57.746Z,19.75
2023-05-05T10:57:27.251Z,16.83
2023-05-05T11:02:28.686Z,18.98
2023-05-05T11:05:21.625Z,18.13
2023-05-05T11:07:50.449Z,18.80
2023-05-05T11:10:23.897Z,18.63
2023-05-05T11:13:00.288Z,23.80
2023-05-05T11:15:30.538Z,22.23
2023-05-05T11:17:58.781Z,17.45
2023-05-05T11:20:40.694Z,20.70
2023-05-05T11:25:38.149Z,16.27
2023-05-05T11:28:12.216Z,18.65
2023-05-05T11:30:58.706Z,17.50
2023-05-05T11:33:26.684Z,21.27
2023-05-05T11:36:06.750Z,19.20
2023-05-05T11:39:09.487Z,18.10
2023-05-05T11:41:45.836Z,16.92
2023-05-05T11:44:16.757Z,18.05
2023-05-05T11:46:52.820Z,14.23
2023-05-05T11:49:39.351Z,20.90
2023-05-05T11:52:15.173Z,18.27
2023-05-05T11:54:48.242Z,18.83
2023-05-05T11:57:21.760Z,18.42
2023-05-05T12:00:07.736Z,18.23
2023-05-05T12:02:35.359Z,20.45
2023-05-05T12:05:02.940Z,19.20
2023-05-05T12:07:32.470Z,17.70
2023-05-05T12:09:59.673Z,19.30
2023-05-05T12:12:39.518Z,16.52
2023-05-05T12:15:07.818Z,19.92
2023-05-05T12:17:40.644Z,18.35
2023-05-05T12:20:09.314Z,21.88
2023-05-05T12:22:36.486Z,23.48
2023-05-05T12:25:05.996Z,21.50
2023-05-05T12:27:33.005Z,21.92
2023-05-05T12:30:12.754Z,22.90
2023-05-05T12:32:40.204Z,22.55
2023-05-05T12:35:08.244Z,18.83
2023-05-05T12:37:36.090Z,19.77
2023-05-05T12:40:04.012Z,21.33
2023-05-05T12:42:30.917Z,20.60
2023-05-05T12:44:57.846Z,20.15
2023-05-05T12:47:32.392Z,21.38
2023-05-05T12:50:00.433Z,24.73
2023-05-05T12:52:44.737Z,24.02
2023-05-05T12:55:12.126Z,24.58
2023-05-05T12:57:39.872Z,24.55
2023-05-05T13:00:17.916Z,24.92
2023-05-05T13:02:45.058Z,22.63
2023-05-05T13:05:12.303Z,25.92
2023-05-05T13:07:50.971Z,21.38
2023-05-05T13:10:18.015Z,22.65
2023-05-05T13:12:44.966Z,23.25
2023-05-05T13:15:12.325Z,23.17
2023-05-05T13:17:39.295Z,22.40
2023-05-05T13:20:08.225Z,21.40
2023-05-05T13:22:35.131Z,22.45
2023-05-05T13:25:02.064Z,24.17
2023-05-05T13:27:28.955Z,21.52
2023-05-05T13:29:56.058Z,21.05
2023-05-05T13:32:23.127Z,28.40
2023-05-05T13:34:49.984Z,21.45
2023-05-05T13:37:16.860Z,21.42
2023-05-05T13:39:43.967Z,21.30
2023-05-05T13:42:11.016Z,23.48
2023-05-05T13:44:37.779Z,26.13
2023-05-05T13:47:04.868Z,27.55
2023-05-05T13:49:31.676Z,24.75
2023-05-05T13:51:58.810Z,26.13
2023-05-05T13:54:26.289Z,30.92
2023-05-05T13:56:53.144Z,31.80
2023-05-05T13:59:19.963Z,27.40
2023-05-05T14:01:46.755Z,29.00
2023-05-05T14:04:13.689Z,26.45
2023-05-05T14:06:40.550Z,32.80
2023-05-05T14:09:08.133Z,27.33
2023-05-05T14:11:35.094Z,31.05
2023-05-05T14:14:02.020Z,31.75
2023-05-05T14:16:28.988Z,37.25
2023-05-05T14:18:55.840Z,37.17
2023-05-05T14:21:22.658Z,35.65
2023-05-05T14:23:49.446Z,38.35
2023-05-05T14:26:16.317Z,38.47
2023-05-05T14:28:43.665Z,41.70
2023-05-05T14:31:11.381Z,43.33
2023-05-05T14:33:38.316Z,41.25
2023-05-05T14:36:05.566Z,45.03
2023-05-05T14:38:32.476Z,45.85
2023-05-05T14:40:59.692Z,46.95
2023-05-05T14:43:26.528Z,35.45
2023-05-05T14:45:53.467Z,15.95
2023-05-05T14:48:22.673Z,21.58
2023-05-05T14:50:50.120Z,15.35
2023-05-05T14:53:19.144Z,13.35
2023-05-05T14:55:46.134Z,12.80
2023-05-05T14:58:12.917Z,10.07
2023-05-05T15:00:39.799Z,9.63
2023-05-05T15:03:06.802Z,13.07
2023-05-05T15:05:33.735Z,7.53
2023-05-05T15:08:00.601Z,7.35
2023-05-05T15:10:27.817Z,11.07
2023-05-05T15:12:54.737Z,8.52
2023-05-05T15:15:21.604Z,10.27
2023-05-05T15:17:48.707Z,7.32
2023-05-05T15:20:15.674Z,8.15
2023-05-05T15:22:42.475Z,8.05
2023-05-05T15:25:12.580Z,7.28
2023-05-05T15:27:40.057Z,7.32
2023-05-05T15:30:08.003Z,5.20
2023-05-05T15:32:34.944Z,5.38
2023-05-05T15:35:01.936Z,4.53
2023-05-05T15:37:29.173Z,6.32
2023-05-05T15:39:56.476Z,5.78
2023-05-05T15:42:23.722Z,9.70
2023-05-05T15:44:51.476Z,6.88
2023-05-05T15:47:18.585Z,6.55
2023-05-05T15:49:45.389Z,9.85
2023-05-05T15:52:13.007Z,6.28
2023-05-05T15:54:39.903Z,5.95
2023-05-05T15:57:06.973Z,7.25
2023-05-05T15:59:33.955Z,9.43
2023-05-05T16:02:00.913Z,10.38
2023-05-05T16:04:27.758Z,7.82
2023-05-05T16:06:55.615Z,9.77
2023-05-05T16:09:22.598Z,7.35
2023-05-05T16:11:49.514Z,7.30
2023-05-05T16:14:16.389Z,12.10
2023-05-05T16:16:44.120Z,6.30
2023-05-05T16:19:10.999Z,11.85
2023-05-05T16:21:38.031Z,10.38
2023-05-05T16:24:05.077Z,11.13
2023-05-05T16:26:32.059Z,8.80
2023-05-05T16:28:58.902Z,9.65
2023-05-05T16:31:26.016Z,8.93
2023-05-05T16:33:52.922Z,9.38
2023-05-05T16:36:20.955Z,8.65
2023-05-05T16:38:48.023Z,9.15
2023-05-05T16:41:14.868Z,7.25
2023-05-05T16:43:41.786Z,8.80
2023-05-05T16:46:08.694Z,11.07
2023-05-05T16:48:35.615Z,10.52
2023-05-05T16:51:02.527Z,9.25
2023-05-05T16:53:29.432Z,11.18
2023-05-05T16:55:56.293Z,9.18
2023-05-05T16:58:23.404Z,8.75
2023-05-05T17:00:51.110Z,8.70
2023-05-05T17:03:21.723Z,8.68
2023-05-05T17:05:50.228Z,7.40
2023-05-05T17:08:17.542Z,7.30
2023-05-05T17:10:45.762Z,9.43
2023-05-05T17:13:13.960Z,9.02
2023-05-05T17:15:41.837Z,8.40
2023-05-05T17:18:08.939Z,8.57
2023-05-05T17:20:36.577Z,7.47
2023-05-05T17:23:03.563Z,7.10
2023-05-05T17:25:30.692Z,6.35
2023-05-05T17:27:57.704Z,7.93
2023-05-05T17:30:24.663Z,8.95
2023-05-05T17:32:51.567Z,12.60
2023-05-05T17:35:18.740Z,10.07
2023-05-05T17:37:45.832Z,9.27
2023-05-05T17:40:12.877Z,9.82
2023-05-05T17:42:39.789Z,11.85
2023-05-05T17:45:08.094Z,9.18
2023-05-05T17:47:35.283Z,14.10
2023-05-05T17:50:02.387Z,11.60
2023-05-05T17:52:29.279Z,9.90
2023-05-05T17:54:56.109Z,17.88
2023-05-05T17:57:23.157Z,11.70
2023-05-05T17:59:50.569Z,10.82
2023-05-05T18:02:18.264Z,9.77
2023-05-05T18:04:46.061Z,9.65
2023-05-05T18:07:14.890Z,13.80
2023-05-05T18:09:42.499Z,9.63
2023-05-05T18:12:09.556Z,11.13
2023-05-05T18:14:36.498Z,14.00
2023-05-05T18:17:03.587Z,10.02
2023-05-05T18:19:30.762Z,9.05
2023-05-05T18:22:00.667Z,9.80
2023-05-05T18:24:28.381Z,8.40
2023-05-05T18:26:55.256Z,9.85
2023-05-05T18:29:22.235Z,17.23
2023-05-05T18:31:53.218Z,10.63
2023-05-05T18:34:21.134Z,12.07
2023-05-05T18:36:48.471Z,15.65
2023-05-05T18:39:15.462Z,20.08
2023-05-05T18:41:42.396Z,15.07
2023-05-05T18:44:10.173Z,17.05
2023-05-05T18:46:37.197Z,15.02
2023-05-05T18:49:04.132Z,15.52
2023-05-05T18:51:30.966Z,13.90
2023-05-05T18:53:58.178Z,16.45
2023-05-05T18:56:25.046Z,13.60
2023-05-05T18:58:51.968Z,13.38
2023-05-05T19:01:18.962Z,13.57
2023-05-05T19:03:49.789Z,15.77
2023-05-05T19:06:17.946Z,18.40
2023-05-05T19:08:45.941Z,24.33
2023-05-05T19:11:14.958Z,62.65
2023-05-05T19:13:42.425Z,25.00
2023-05-05T19:16:11.365Z,26.67
2023-05-05T19:18:38.809Z,16.65
2023-05-05T19:21:06.033Z,20.27
2023-05-05T19:23:33.553Z,16.25
2023-05-05T19:26:00.449Z,20.92
2023-05-05T19:28:27.283Z,23.42
2023-05-05T19:30:54.180Z,20.98
2023-05-05T19:33:21.369Z,15.30
2023-05-05T19:35:48.428Z,14.30
2023-05-05T19:38:15.872Z,16.73
2023-05-05T19:40:43.559Z,15.68
2023-05-05T19:43:10.528Z,14.65
2023-05-05T19:45:37.527Z,20.70
2023-05-05T19:48:04.693Z,19.77
2023-05-05T19:50:31.867Z,17.05
2023-05-05T19:52:58.750Z,16.15
2023-05-05T19:55:25.874Z,16.23
2023-05-05T19:57:52.820Z,19.40
2023-05-05T20:00:19.998Z,17.67
2023-05-05T20:02:48.736Z,18.60
2023-05-05T20:05:17.819Z,18.75
2023-05-05T20:07:46.533Z,19.65
2023-05-05T20:10:13.838Z,18.60
2023-05-05T20:12:48.175Z,19.90
2023-05-05T20:15:20.311Z,12.85
2023-05-05T20:17:48.074Z,13.93
2023-05-05T20:20:20.884Z,12.82
2023-05-05T20:22:48.862Z,14.70
2023-05-05T20:25:18.476Z,14.13
2023-05-05T20:27:45.999Z,15.02
2023-05-05T20:30:13.335Z,15.80
2023-05-05T20:32:40.703Z,19.90
2023-05-05T20:35:08.187Z,16.67
2023-05-05T20:37:35.040Z,12.65
2023-05-05T20:40:02.015Z,13.65
2023-05-05T20:42:29.957Z,16.20
2023-05-05T20:44:57.100Z,16.45
2023-05-05T20:47:24.633Z,16.02
2023-05-05T20:49:52.711Z,16.27
2023-05-05T20:52:19.787Z,17.17
2023-05-05T20:54:46.585Z,13.35
2023-05-05T20:57:13.482Z,12.35
2023-05-05T20:59:40.540Z,15.50
2023-05-05T21:02:07.956Z,16.70
2023-05-05T21:04:34.832Z,14.77
2023-05-05T21:07:01.688Z,15.15
2023-05-05T21:09:28.825Z,13.70
2023-05-05T21:11:55.803Z,14.23
2023-05-05T21:14:23.367Z,15.88
2023-05-05T21:16:50.343Z,15.32
2023-05-05T21:19:17.231Z,17.60
2023-05-05T21:21:44.438Z,14.07
2023-05-05T21:24:13.147Z,16.33
2023-05-05T21:26:46.848Z,16.60
2023-05-05T21:29:13.707Z,13.88
2023-05-05T21:31:40.659Z,15.35
2023-05-05T21:34:07.472Z,11.68
2023-05-05T21:36:34.544Z,17.13
2023-05-05T21:39:01.445Z,13.55
2023-05-05T21:41:28.381Z,12.80
2023-05-05T21:43:55.330Z,18.25
2023-05-05T21:46:22.312Z,15.48
2023-05-05T21:48:49.153Z,10.77
2023-05-05T21:51:16.024Z,11.43
2023-05-05T21:53:42.991Z,15.45
2023-05-05T21:56:09.795Z,16.80
2023-05-05T21:58:36.598Z,19.30
2023-05-05T22:01:03.621Z,16.70
2023-05-05T22:03:30.590Z,14.02
2023-05-05T22:05:57.457Z,15.68
2023-05-05T22:08:24.327Z,14.88
2023-05-05T22:10:51.700Z,14.25
2023-05-05T22:13:18.579Z,21.88
2023-05-05T22:15:47.470Z,13.05
2023-05-05T22:18:15.286Z,15.93
2023-05-05T22:20:42.444Z,16.20
2023-05-05T22:23:09.357Z,13.60
2023-05-05T22:25:36.172Z,13.48
2023-05-05T22:28:03.017Z,16.40
2023-05-05T22:30:29.808Z,13.60
2023-05-05T22:32:56.806Z,13.23
2023-05-05T22:35:23.681Z,13.27
2023-05-05T22:37:50.502Z,14.98
2023-05-05T22:40:17.476Z,16.17
2023-05-05T22:42:44.571Z,14.88
2023-05-05T22:45:12.016Z,14.30
2023-05-05T22:47:39.042Z,13.48
2023-05-05T22:50:06.491Z,15.32
2023-05-05T22:52:33.362Z,15.27
2023-05-05T22:55:00.183Z,16.50
2023-05-05T22:57:26.951Z,19.83
2023-05-05T22:59:53.750Z,16.73
2023-05-05T23:02:20.566Z,18.95
2023-05-05T23:04:47.608Z,19.80
2023-05-05T23:07:14.536Z,18.27
2023-05-05T23:09:41.522Z,16.90
2023-05-05T23:12:08.299Z,15.07
2023-05-05T23:14:35.785Z,15.68
2023-05-05T23:17:02.741Z,20.88
2023-05-05T23:19:32.255Z,19.08
2023-05-05T23:21:59.929Z,25.73
2023-05-05T23:24:27.749Z,18.48
2023-05-05T23:26:56.364Z,23.50
2023-05-05T23:29:23.124Z,14.63
2023-05-05T23:31:50.012Z,16.63
2023-05-05T23:34:17.096Z,12.90
2023-05-05T23:36:44.019Z,16.23
2023-05-05T23:39:11.222Z,22.77
2023-05-05T23:41:37.992Z,17.88
2023-05-05T23:44:04.857Z,16.30
2023-05-05T23:46:31.776Z,17.27
2023-05-05T23:48:58.589Z,16.35
2023-05-05T23:51:25.412Z,18.05
2023-05-05T23:53:52.235Z,17.88
2023-05-05T23:56:19.121Z,15.40
2023-05-05T23:58:46.041Z,16.40
